createdAt,value
2022-08-09T00:00:17.664Z,0.00
2022-08-09T00:01:17.638Z,0.00
2022-08-09T00:02:17.579Z,0.00
2022-08-09T00:04:00.805Z,0.00
2022-08-09T00:04:34.514Z,0.00
2022-08-09T00:06:17.601Z,0.00
2022-08-09T00:06:22.874Z,0.00
2022-08-09T00:07:17.389Z,0.00
2022-08-09T00:08:32.372Z,0.00
2022-08-09T00:09:17.325Z,0.00
2022-08-09T00:10:21.116Z,0.00
2022-08-09T00:11:24.864Z,0.00
2022-08-09T00:12:22.845Z,0.00
2022-08-09T00:13:18.184Z,0.00
2022-08-09T00:14:22.065Z,0.00
2022-08-09T00:15:17.153Z,0.00
2022-08-09T00:16:17.127Z,0.00
2022-08-09T00:18:04.645Z,0.00
2022-08-09T00:18:17.066Z,0.00
2022-08-09T00:19:18.578Z,0.00
2022-08-09T00:20:17.006Z,0.00
2022-08-09T00:21:16.983Z,0.00
2022-08-09T00:22:18.251Z,0.00
2022-08-09T00:23:55.459Z,0.00
2022-08-09T00:24:16.892Z,0.00
2022-08-09T00:25:23.618Z,0.00
2022-08-09T00:26:16.834Z,0.00
2022-08-09T00:27:16.810Z,0.00
2022-08-09T00:28:16.775Z,0.00
2022-08-09T00:29:39.418Z,0.00
2022-08-09T00:30:25.309Z,0.00
2022-08-09T00:31:55.799Z,0.00
2022-08-09T00:32:26.713Z,0.00
2022-08-09T00:33:16.629Z,0.00
2022-08-09T00:34:19.495Z,0.00
2022-08-09T00:35:16.567Z,0.00
2022-08-09T00:36:16.547Z,0.00
2022-08-09T00:37:16.513Z,0.00
2022-08-09T00:38:16.480Z,0.00
2022-08-09T00:39:17.064Z,0.00
2022-08-09T00:40:19.695Z,0.00
2022-08-09T00:44:13.486Z,0.00
2022-08-09T00:44:14.815Z,0.00
2022-08-09T00:44:14.880Z,0.00
2022-08-09T00:44:25.409Z,0.00
2022-08-09T00:45:16.502Z,0.00
2022-08-09T00:46:28.442Z,0.00
2022-08-09T00:47:16.219Z,0.00
2022-08-09T00:48:19.453Z,0.00
2022-08-09T00:49:16.158Z,0.00
2022-08-09T00:50:16.126Z,0.00
2022-08-09T00:51:16.101Z,0.00
2022-08-09T00:52:28.209Z,0.00
2022-08-09T00:53:16.039Z,0.00
2022-08-09T00:54:16.015Z,0.00
2022-08-09T00:55:32.869Z,0.00
2022-08-09T00:56:15.953Z,0.00
2022-08-09T00:57:24.627Z,0.00
2022-08-09T00:58:25.454Z,0.00
2022-08-09T00:59:20.195Z,0.00
2022-08-09T01:00:21.859Z,0.00
2022-08-09T01:01:16.027Z,0.00
2022-08-09T01:02:15.771Z,0.00
2022-08-09T01:03:15.744Z,0.00
2022-08-09T01:04:15.714Z,0.00
2022-08-09T01:05:21.830Z,0.00
2022-08-09T01:06:18.390Z,0.00
2022-08-09T01:07:15.623Z,0.00
2022-08-09T01:08:16.241Z,0.00
2022-08-09T01:09:15.565Z,0.00
2022-08-09T01:10:15.538Z,0.00
2022-08-09T01:11:15.510Z,0.00
2022-08-09T01:12:15.478Z,0.00
2022-08-09T01:13:16.706Z,0.00
2022-08-09T01:14:15.420Z,0.00
2022-08-09T01:15:16.918Z,0.00
2022-08-09T01:16:15.360Z,0.00
2022-08-09T01:17:16.062Z,0.00
2022-08-09T01:18:15.300Z,0.00
2022-08-09T01:19:17.076Z,0.00
2022-08-09T01:20:15.237Z,0.00
2022-08-09T01:21:15.210Z,0.00
2022-08-09T01:22:16.667Z,0.00
2022-08-09T01:24:02.809Z,0.00
2022-08-09T01:24:15.122Z,0.00
2022-08-09T01:25:15.090Z,0.00
2022-08-09T01:26:15.058Z,0.00
2022-08-09T01:27:15.033Z,0.00
2022-08-09T01:28:15.003Z,0.00
2022-08-09T01:29:15.384Z,0.00
2022-08-09T01:30:35.351Z,0.00
2022-08-09T01:32:29.572Z,0.00
2022-08-09T01:32:30.681Z,0.00
2022-08-09T01:33:14.856Z,0.00
2022-08-09T01:34:14.821Z,0.00
2022-08-09T01:35:28.444Z,0.00
2022-08-09T01:36:14.767Z,0.00
2022-08-09T01:37:14.738Z,0.00
2022-08-09T01:38:15.487Z,0.00
2022-08-09T01:39:14.705Z,0.00
2022-08-09T01:40:23.293Z,0.00
2022-08-09T01:41:14.616Z,0.00
2022-08-09T01:42:14.586Z,0.00
2022-08-09T01:43:14.557Z,0.00
2022-08-09T01:44:14.528Z,0.00
2022-08-09T01:45:14.495Z,0.00
2022-08-09T01:46:18.210Z,0.00
2022-08-09T01:47:14.441Z,0.00
2022-08-09T01:48:15.604Z,0.00
2022-08-09T01:49:14.812Z,0.00
2022-08-09T01:50:14.351Z,0.00
2022-08-09T01:51:14.320Z,0.00
2022-08-09T01:52:14.576Z,0.00
2022-08-09T01:53:19.331Z,0.00
2022-08-09T01:54:14.268Z,0.00
2022-08-09T01:55:14.201Z,0.00
2022-08-09T01:56:14.172Z,0.00
2022-08-09T01:57:14.975Z,0.00
2022-08-09T01:58:14.116Z,0.00
2022-08-09T01:59:16.274Z,0.00
2022-08-09T02:00:34.876Z,0.00
2022-08-09T02:01:18.336Z,0.00
2022-08-09T02:02:14.092Z,0.00
2022-08-09T02:03:13.986Z,0.00
2022-08-09T02:04:13.935Z,0.00
2022-08-09T02:05:15.734Z,0.00
2022-08-09T02:06:13.869Z,0.00
2022-08-09T02:07:18.276Z,0.00
2022-08-09T02:08:41.353Z,0.00
2022-08-09T02:09:13.784Z,0.00
2022-08-09T02:10:13.752Z,0.00
2022-08-09T02:11:17.358Z,0.00
2022-08-09T02:12:21.111Z,0.00
2022-08-09T02:13:13.661Z,0.00
2022-08-09T02:14:15.900Z,0.00
2022-08-09T02:15:16.927Z,0.00
2022-08-09T02:16:13.571Z,0.00
2022-08-09T02:17:14.929Z,0.00
2022-08-09T02:18:13.517Z,0.00
2022-08-09T02:19:13.482Z,0.00
2022-08-09T02:20:22.719Z,0.00
2022-08-09T02:21:21.937Z,0.00
2022-08-09T02:22:13.396Z,0.00
2022-08-09T02:23:13.362Z,0.00
2022-08-09T02:24:26.530Z,0.00
2022-08-09T02:25:15.043Z,0.00
2022-08-09T02:26:26.839Z,0.00
2022-08-09T02:27:13.245Z,0.00
2022-08-09T02:28:13.211Z,0.00
2022-08-09T02:29:13.188Z,0.00
2022-08-09T02:30:13.153Z,0.00
2022-08-09T02:31:13.123Z,0.00
2022-08-09T02:32:13.094Z,0.00
2022-08-09T02:33:14.367Z,0.00
2022-08-09T02:34:40.712Z,0.00
2022-08-09T02:35:17.338Z,0.00
2022-08-09T02:36:12.972Z,0.00
2022-08-09T02:37:12.940Z,0.00
2022-08-09T02:38:27.893Z,0.00
2022-08-09T02:39:14.442Z,0.00
2022-08-09T02:40:12.918Z,0.00
2022-08-09T02:41:12.827Z,0.00
2022-08-09T02:42:12.791Z,0.00
2022-08-09T02:43:12.764Z,0.00
2022-08-09T02:44:19.893Z,0.00
2022-08-09T02:45:12.705Z,0.00
2022-08-09T02:46:12.674Z,0.00
2022-08-09T02:47:12.643Z,0.00
2022-08-09T02:48:30.910Z,0.00
2022-08-09T02:49:12.583Z,0.00
2022-08-09T02:50:12.549Z,0.00
2022-08-09T02:51:12.520Z,0.00
2022-08-09T02:52:12.503Z,0.00
2022-08-09T02:53:26.416Z,0.00
2022-08-09T02:54:13.788Z,0.00
2022-08-09T02:55:21.059Z,0.00
2022-08-09T02:56:12.382Z,0.00
2022-08-09T02:57:14.037Z,0.00
2022-08-09T02:58:32.800Z,0.00
2022-08-09T02:59:16.050Z,0.00
2022-08-09T03:00:25.569Z,0.00
2022-08-09T03:01:15.214Z,0.00
2022-08-09T03:02:16.912Z,0.00
2022-08-09T03:03:12.157Z,0.00
2022-08-09T03:04:16.738Z,0.00
2022-08-09T03:05:16.680Z,0.00
2022-08-09T03:06:12.075Z,0.00
2022-08-09T03:07:14.362Z,0.00
2022-08-09T03:08:12.009Z,0.00
2022-08-09T03:09:11.978Z,0.00
2022-08-09T03:10:11.949Z,0.00
2022-08-09T03:11:11.916Z,0.00
2022-08-09T03:12:13.260Z,0.00
2022-08-09T03:13:11.860Z,0.00
2022-08-09T03:14:11.827Z,0.00
2022-08-09T03:15:11.803Z,0.00
2022-08-09T03:16:11.766Z,0.00
2022-08-09T03:17:16.630Z,0.00
2022-08-09T03:18:11.704Z,0.00
2022-08-09T03:19:14.422Z,0.00
2022-08-09T03:20:11.854Z,0.00
2022-08-09T03:21:11.651Z,0.00
2022-08-09T03:22:11.905Z,0.00
2022-08-09T03:23:15.030Z,0.00
2022-08-09T03:24:11.522Z,0.00
2022-08-09T03:25:26.544Z,0.00
2022-08-09T03:26:11.463Z,0.00
2022-08-09T03:27:11.435Z,0.00
2022-08-09T03:28:11.574Z,0.00
2022-08-09T03:29:13.511Z,0.00
2022-08-09T03:30:11.342Z,0.00
2022-08-09T03:31:21.395Z,0.00
2022-08-09T03:32:11.284Z,0.00
2022-08-09T03:33:17.168Z,0.00
2022-08-09T03:34:11.216Z,0.00
2022-08-09T03:35:14.978Z,0.00
2022-08-09T03:36:16.807Z,0.00
2022-08-09T03:37:55.605Z,0.00
2022-08-09T03:38:11.096Z,0.00
2022-08-09T03:39:11.115Z,0.00
2022-08-09T03:40:13.050Z,0.00
2022-08-09T03:41:15.449Z,0.00
2022-08-09T03:42:10.975Z,0.00
2022-08-09T03:43:11.542Z,0.00
2022-08-09T03:44:12.047Z,0.00
2022-08-09T03:45:10.901Z,0.00
2022-08-09T03:46:20.153Z,0.00
2022-08-09T03:47:10.824Z,4.00
2022-08-09T03:48:10.942Z,4.00
2022-08-09T03:49:10.763Z,0.00
2022-08-09T03:50:10.733Z,0.00
2022-08-09T03:51:43.808Z,4.00
2022-08-09T03:52:10.677Z,0.00
2022-08-09T03:53:10.896Z,4.00
2022-08-09T03:54:11.365Z,4.00
2022-08-09T03:55:10.597Z,4.00
2022-08-09T03:56:10.550Z,8.00
2022-08-09T03:57:18.736Z,4.00
2022-08-09T03:58:16.269Z,8.00
2022-08-09T03:59:13.720Z,8.00
2022-08-09T04:00:10.429Z,8.00
2022-08-09T04:01:10.482Z,8.00
2022-08-09T04:02:10.369Z,16.00
2022-08-09T04:03:11.778Z,16.00
2022-08-09T04:04:14.805Z,16.00
2022-08-09T04:05:17.082Z,20.00
2022-08-09T04:06:10.261Z,20.00
2022-08-09T04:07:10.214Z,24.00
2022-08-09T04:08:10.182Z,28.00
2022-08-09T04:09:41.810Z,28.00
2022-08-09T04:10:10.124Z,32.00
2022-08-09T04:11:11.200Z,32.00
2022-08-09T04:12:11.659Z,36.00
2022-08-09T04:13:11.432Z,44.00
2022-08-09T04:14:53.404Z,44.00
2022-08-09T04:15:17.133Z,48.00
2022-08-09T04:16:19.352Z,52.00
2022-08-09T04:17:09.906Z,56.00
2022-08-09T04:18:16.754Z,60.00
2022-08-09T04:19:11.201Z,64.00
2022-08-09T04:20:09.815Z,72.00
2022-08-09T04:21:09.787Z,72.00
2022-08-09T04:22:11.884Z,76.00
2022-08-09T04:23:16.583Z,84.00
2022-08-09T04:24:09.698Z,88.00
2022-08-09T04:25:09.681Z,92.00
2022-08-09T04:26:09.637Z,96.00
2022-08-09T04:27:09.610Z,100.00
2022-08-09T04:28:09.577Z,112.00
2022-08-09T04:29:13.476Z,116.00
2022-08-09T04:30:09.512Z,120.00
2022-08-09T04:31:10.287Z,124.00
2022-08-09T04:32:09.451Z,128.00
2022-08-09T04:33:09.424Z,136.00
2022-08-09T04:34:09.390Z,144.00
2022-08-09T04:35:10.370Z,148.00
2022-08-09T04:36:09.329Z,152.00
2022-08-09T04:37:09.297Z,160.00
2022-08-09T04:38:09.321Z,164.00
2022-08-09T04:39:09.279Z,168.00
2022-08-09T04:40:09.205Z,176.00
2022-08-09T04:41:11.869Z,176.00
2022-08-09T04:42:09.396Z,184.00
2022-08-09T04:43:09.118Z,188.00
2022-08-09T04:44:09.741Z,196.00
2022-08-09T04:45:09.051Z,200.00
2022-08-09T04:46:09.023Z,204.00
2022-08-09T04:47:08.994Z,208.00
2022-08-09T04:48:10.540Z,216.00
2022-08-09T04:49:08.932Z,220.00
2022-08-09T04:50:08.898Z,224.00
2022-08-09T04:51:08.864Z,232.00
2022-08-09T04:52:09.624Z,232.00
2022-08-09T04:53:13.300Z,240.00
2022-08-09T04:54:08.778Z,244.00
2022-08-09T04:55:12.306Z,248.00
2022-08-09T04:56:08.717Z,252.00
2022-08-09T04:57:09.327Z,260.00
2022-08-09T04:58:09.217Z,260.00
2022-08-09T04:59:13.185Z,268.00
2022-08-09T05:00:08.593Z,272.00
2022-08-09T05:01:16.083Z,276.00
2022-08-09T05:02:08.529Z,280.00
2022-08-09T05:03:40.481Z,284.00
2022-08-09T05:04:08.508Z,288.00
2022-08-09T05:05:09.746Z,292.00
2022-08-09T05:06:08.426Z,300.00
2022-08-09T05:07:08.407Z,300.00
2022-08-09T05:08:08.347Z,304.00
2022-08-09T05:12:08.470Z,320.00
2022-08-09T05:13:08.531Z,324.00
2022-08-09T05:14:08.387Z,328.00
2022-08-09T05:15:11.394Z,332.00
2022-08-09T05:18:38.429Z,340.00
2022-08-09T05:18:59.057Z,348.00
2022-08-09T05:20:43.936Z,352.00
2022-08-09T05:21:46.990Z,356.00
2022-08-09T05:23:54.027Z,360.00
2022-08-09T05:24:47.758Z,364.00
2022-08-09T05:26:51.672Z,372.00
2022-08-09T05:27:51.623Z,372.00
2022-08-09T05:29:55.529Z,380.00
2022-08-09T05:30:55.503Z,384.00
2022-08-09T05:32:59.413Z,388.00
2022-08-09T05:33:59.363Z,392.00
2022-08-09T05:35:52.209Z,396.00
2022-08-09T05:36:52.164Z,396.00
2022-08-09T05:38:56.077Z,404.00
2022-08-09T05:39:56.095Z,404.00
2022-08-09T05:42:04.439Z,408.00
2022-08-09T05:42:59.902Z,408.00
2022-08-09T05:45:03.811Z,416.00
2022-08-09T05:46:03.773Z,420.00
2022-08-09T05:48:07.685Z,420.00
2022-08-09T05:49:07.640Z,420.00
2022-08-09T05:51:30.375Z,428.00
2022-08-09T05:52:11.510Z,428.00
2022-08-09T05:54:15.433Z,432.00
2022-08-09T05:55:21.271Z,436.00
2022-08-09T05:57:19.441Z,440.00
2022-08-09T05:58:19.255Z,444.00
2022-08-09T06:00:23.174Z,492.00
2022-08-09T06:01:23.120Z,536.00
2022-08-09T06:03:34.803Z,644.00
2022-08-09T06:04:34.910Z,688.00
2022-08-09T06:06:30.900Z,688.00
2022-08-09T06:07:30.863Z,660.00
2022-08-09T06:09:55.079Z,552.00
2022-08-09T06:10:34.728Z,516.00
2022-08-09T06:12:38.633Z,468.00
2022-08-09T06:13:38.597Z,464.00
2022-08-09T06:15:31.445Z,460.00
2022-08-09T06:16:31.398Z,464.00
2022-08-09T06:18:35.322Z,468.00
2022-08-09T06:19:35.272Z,468.00
2022-08-09T06:21:50.361Z,472.00
2022-08-09T06:22:39.140Z,472.00
2022-08-09T06:24:43.058Z,472.00
2022-08-09T06:25:43.212Z,472.00
2022-08-09T06:27:51.849Z,480.00
2022-08-09T06:28:46.883Z,480.00
2022-08-09T06:30:50.797Z,480.00
2022-08-09T06:32:17.281Z,484.00
2022-08-09T06:33:54.695Z,484.00
2022-08-09T06:34:54.649Z,484.00
2022-08-09T06:36:59.815Z,488.00
2022-08-09T06:38:06.014Z,488.00
2022-08-09T06:40:05.650Z,492.00
2022-08-09T06:41:02.365Z,492.00
2022-08-09T06:42:11.324Z,492.00
2022-08-09T06:43:02.323Z,492.00
2022-08-09T06:44:02.273Z,492.00
2022-08-09T06:45:20.425Z,496.00
2022-08-09T06:46:05.163Z,496.00
2022-08-09T06:47:02.186Z,496.00
2022-08-09T06:48:02.159Z,500.00
2022-08-09T06:49:02.128Z,500.00
2022-08-09T06:50:14.606Z,500.00
2022-08-09T06:51:05.177Z,500.00
2022-08-09T06:52:02.040Z,500.00
2022-08-09T06:53:02.009Z,500.00
2022-08-09T06:54:01.985Z,500.00
2022-08-09T06:55:01.948Z,504.00
2022-08-09T06:56:01.916Z,504.00
2022-08-09T06:57:01.919Z,508.00
2022-08-09T06:58:04.530Z,504.00
2022-08-09T07:00:53.060Z,508.00
2022-08-09T07:00:53.150Z,504.00
2022-08-09T07:01:01.854Z,508.00
2022-08-09T07:02:04.363Z,508.00
2022-08-09T07:03:01.730Z,512.00
2022-08-09T07:04:04.062Z,512.00
2022-08-09T07:05:01.657Z,512.00
2022-08-09T07:06:04.893Z,512.00
2022-08-09T07:07:04.995Z,516.00
2022-08-09T07:08:01.889Z,516.00
2022-08-09T07:09:01.531Z,516.00
2022-08-09T07:10:13.130Z,516.00
2022-08-09T07:11:01.477Z,516.00
2022-08-09T07:12:01.444Z,516.00
2022-08-09T07:13:05.424Z,520.00
2022-08-09T07:14:05.644Z,520.00
2022-08-09T07:15:03.478Z,524.00
2022-08-09T07:16:43.269Z,524.00
2022-08-09T07:17:01.294Z,528.00
2022-08-09T07:18:02.106Z,524.00
2022-08-09T07:19:01.236Z,528.00
2022-08-09T07:20:01.208Z,528.00
2022-08-09T07:21:01.177Z,532.00
2022-08-09T07:22:01.144Z,532.00
2022-08-09T07:23:01.118Z,536.00
2022-08-09T07:24:01.092Z,536.00
2022-08-09T07:25:01.066Z,536.00
2022-08-09T07:26:02.443Z,536.00
2022-08-09T07:27:01.004Z,540.00
2022-08-09T07:28:00.973Z,540.00
2022-08-09T07:29:09.111Z,544.00
2022-08-09T07:30:00.913Z,544.00
2022-08-09T07:31:00.885Z,544.00
2022-08-09T07:32:00.851Z,548.00
2022-08-09T07:33:00.824Z,548.00
2022-08-09T07:34:00.800Z,552.00
2022-08-09T07:35:00.770Z,548.00
2022-08-09T07:36:00.736Z,548.00
2022-08-09T07:37:02.617Z,552.00
2022-08-09T07:38:00.677Z,552.00
2022-08-09T07:39:02.234Z,556.00
2022-08-09T07:40:00.693Z,556.00
2022-08-09T07:41:11.475Z,560.00
2022-08-09T07:42:00.563Z,560.00
2022-08-09T07:43:00.535Z,560.00
2022-08-09T07:44:00.502Z,564.00
2022-08-09T07:45:06.576Z,564.00
2022-08-09T07:46:01.962Z,572.00
2022-08-09T07:47:00.419Z,568.00
2022-08-09T07:48:04.122Z,568.00
2022-08-09T07:49:00.525Z,568.00
2022-08-09T07:50:07.695Z,568.00
2022-08-09T07:51:10.190Z,572.00
2022-08-09T07:52:03.181Z,572.00
2022-08-09T07:53:02.994Z,576.00
2022-08-09T07:54:07.321Z,580.00
2022-08-09T07:55:00.200Z,576.00
2022-08-09T07:56:03.378Z,580.00
2022-08-09T07:57:00.127Z,580.00
2022-08-09T07:58:00.125Z,580.00
2022-08-09T07:59:00.080Z,580.00
2022-08-09T08:00:03.104Z,584.00
2022-08-09T08:01:06.714Z,584.00
2022-08-09T08:02:00.015Z,584.00
2022-08-09T08:02:59.952Z,588.00
2022-08-09T08:03:59.923Z,592.00
2022-08-09T08:04:59.897Z,592.00
2022-08-09T08:05:59.865Z,596.00
2022-08-09T08:07:00.029Z,596.00
2022-08-09T08:08:44.578Z,596.00
2022-08-09T08:09:04.552Z,600.00
2022-08-09T08:10:08.933Z,596.00
2022-08-09T08:11:03.221Z,600.00
2022-08-09T08:12:09.762Z,604.00
2022-08-09T08:12:59.665Z,604.00
2022-08-09T08:13:59.638Z,608.00
2022-08-09T08:14:59.790Z,608.00
2022-08-09T08:15:59.575Z,608.00
2022-08-09T08:17:07.716Z,608.00
2022-08-09T08:17:59.524Z,580.00
2022-08-09T08:18:59.495Z,576.00
2022-08-09T08:19:59.483Z,580.00
2022-08-09T08:20:59.437Z,580.00
2022-08-09T08:21:59.429Z,580.00
2022-08-09T08:23:01.508Z,584.00
2022-08-09T08:24:01.010Z,584.00
2022-08-09T08:24:59.334Z,588.00
2022-08-09T08:26:06.346Z,588.00
2022-08-09T08:26:59.264Z,588.00
2022-08-09T08:27:59.237Z,588.00
2022-08-09T08:28:59.212Z,592.00
2022-08-09T08:29:59.178Z,592.00
2022-08-09T08:30:59.202Z,592.00
2022-08-09T08:32:05.599Z,596.00
2022-08-09T08:32:59.092Z,596.00
2022-08-09T08:33:59.060Z,600.00
2022-08-09T08:34:59.333Z,596.00
2022-08-09T08:36:03.535Z,604.00
2022-08-09T08:36:58.976Z,604.00
2022-08-09T08:38:02.043Z,604.00
2022-08-09T08:38:58.938Z,608.00
2022-08-09T08:39:58.939Z,612.00
2022-08-09T08:40:58.868Z,616.00
2022-08-09T08:41:59.061Z,612.00
2022-08-09T08:42:58.981Z,616.00
2022-08-09T08:44:02.486Z,616.00
2022-08-09T08:44:58.752Z,616.00
2022-08-09T08:46:10.110Z,632.00
2022-08-09T08:47:02.818Z,620.00
2022-08-09T08:47:59.030Z,624.00
2022-08-09T08:48:58.665Z,624.00
2022-08-09T08:49:58.616Z,628.00
2022-08-09T08:50:58.730Z,628.00
2022-08-09T08:52:00.502Z,632.00
2022-08-09T08:53:00.523Z,632.00
2022-08-09T08:54:03.206Z,632.00
2022-08-09T08:54:58.472Z,636.00
2022-08-09T08:55:58.439Z,644.00
2022-08-09T08:56:58.413Z,640.00
2022-08-09T08:57:58.537Z,644.00
2022-08-09T08:58:58.908Z,644.00
2022-08-09T08:59:59.128Z,644.00
2022-08-09T09:00:58.303Z,652.00
2022-08-09T09:01:59.708Z,648.00
2022-08-09T09:03:02.816Z,656.00
2022-08-09T09:03:58.273Z,656.00
2022-08-09T09:04:58.193Z,656.00
2022-08-09T09:06:05.108Z,656.00
2022-08-09T09:06:58.203Z,660.00
2022-08-09T09:07:58.107Z,664.00
2022-08-09T09:08:59.677Z,664.00
2022-08-09T09:10:04.640Z,668.00
2022-08-09T09:10:58.021Z,668.00
2022-08-09T09:11:58.205Z,672.00
2022-08-09T09:12:57.967Z,680.00
2022-08-09T09:13:58.676Z,676.00
2022-08-09T09:14:57.909Z,684.00
2022-08-09T09:15:57.884Z,684.00
2022-08-09T09:16:57.853Z,688.00
2022-08-09T09:17:57.830Z,692.00
2022-08-09T09:19:21.485Z,688.00
2022-08-09T09:19:57.777Z,696.00
2022-08-09T09:20:57.747Z,700.00
2022-08-09T09:21:58.055Z,708.00
2022-08-09T09:22:57.700Z,708.00
2022-08-09T09:24:04.474Z,724.00
2022-08-09T09:26:01.442Z,724.00
2022-08-09T09:26:01.809Z,728.00
2022-08-09T09:26:57.582Z,716.00
2022-08-09T09:28:05.841Z,724.00
2022-08-09T09:29:03.964Z,724.00
2022-08-09T09:30:13.894Z,724.00
2022-08-09T09:30:57.475Z,732.00
2022-08-09T09:32:06.163Z,732.00
2022-08-09T09:32:57.417Z,736.00
2022-08-09T09:33:57.386Z,728.00
2022-08-09T09:34:57.359Z,740.00
2022-08-09T09:36:02.489Z,748.00
2022-08-09T09:36:57.310Z,744.00
2022-08-09T09:37:57.274Z,748.00
2022-08-09T09:38:57.408Z,752.00
2022-08-09T09:39:57.869Z,756.00
2022-08-09T09:40:57.194Z,760.00
2022-08-09T09:41:57.240Z,760.00
2022-08-09T09:42:57.142Z,760.00
2022-08-09T09:44:10.594Z,764.00
2022-08-09T09:44:57.084Z,776.00
2022-08-09T09:45:57.589Z,772.00
2022-08-09T09:46:57.041Z,776.00
2022-08-09T09:47:58.932Z,780.00
2022-08-09T09:48:56.977Z,788.00
2022-08-09T09:50:14.987Z,792.00
2022-08-09T09:50:56.925Z,792.00
2022-08-09T09:51:56.896Z,800.00
2022-08-09T09:52:57.473Z,800.00
2022-08-09T09:54:02.163Z,808.00
2022-08-09T09:54:56.819Z,812.00
2022-08-09T09:56:03.887Z,816.00
2022-08-09T09:58:00.738Z,824.00
2022-08-09T09:58:02.767Z,828.00
2022-08-09T09:58:56.706Z,840.00
2022-08-09T09:59:56.679Z,848.00
2022-08-09T10:00:58.438Z,848.00
2022-08-09T10:01:56.626Z,856.00
2022-08-09T10:02:57.442Z,856.00
2022-08-09T10:03:59.196Z,888.00
2022-08-09T10:04:56.544Z,876.00
2022-08-09T10:06:03.234Z,868.00
2022-08-09T10:06:56.493Z,868.00
2022-08-09T10:08:11.124Z,876.00
2022-08-09T10:08:57.854Z,884.00
2022-08-09T10:09:56.407Z,888.00
2022-08-09T10:10:56.397Z,888.00
2022-08-09T10:12:04.535Z,896.00
2022-08-09T10:12:56.572Z,900.00
2022-08-09T10:13:56.313Z,932.00
2022-08-09T10:14:56.288Z,932.00
2022-08-09T10:16:54.585Z,920.00
2022-08-09T10:17:00.378Z,928.00
2022-08-09T10:17:57.063Z,932.00
2022-08-09T10:18:56.175Z,944.00
2022-08-09T10:19:56.949Z,952.00
2022-08-09T10:20:56.118Z,960.00
2022-08-09T10:21:56.093Z,964.00
2022-08-09T10:23:00.456Z,968.00
2022-08-09T10:23:56.040Z,980.00
2022-08-09T10:24:56.009Z,988.00
2022-08-09T10:26:06.458Z,992.00
2022-08-09T10:26:55.958Z,1004.00
2022-08-09T10:27:58.204Z,1016.00
2022-08-09T10:29:21.398Z,1020.00
2022-08-09T10:30:41.757Z,1036.00
2022-08-09T10:32:56.120Z,1104.00
2022-08-09T10:34:09.544Z,1080.00
2022-08-09T10:34:55.747Z,1096.00
2022-08-09T10:35:55.718Z,1160.00
2022-08-09T10:36:55.696Z,1240.00
2022-08-09T10:37:55.669Z,1268.00
2022-08-09T10:39:00.152Z,1268.00
2022-08-09T10:39:55.635Z,1268.00
2022-08-09T10:40:56.440Z,1268.00
2022-08-09T10:41:55.569Z,1292.00
2022-08-09T10:42:55.542Z,1292.00
2022-08-09T10:44:01.076Z,1308.00
2022-08-09T10:44:55.487Z,1300.00
2022-08-09T10:45:59.973Z,1328.00
2022-08-09T10:47:01.197Z,1332.00
2022-08-09T10:48:25.881Z,1320.00
2022-08-09T10:48:55.383Z,1356.00
2022-08-09T10:49:55.364Z,1368.00
2022-08-09T10:50:57.566Z,1344.00
2022-08-09T10:51:57.432Z,1380.00
2022-08-09T10:52:56.692Z,1384.00
2022-08-09T10:53:56.439Z,1384.00
2022-08-09T10:54:58.239Z,1392.00
2022-08-09T10:56:02.365Z,1384.00
2022-08-09T10:58:00.826Z,1388.00
2022-08-09T10:59:00.615Z,1396.00
2022-08-09T11:03:06.510Z,1448.00
2022-08-09T11:03:15.835Z,1620.00
2022-08-09T11:04:30.968Z,1896.00
2022-08-09T11:05:08.476Z,2056.00
2022-08-09T11:07:01.541Z,2272.00
2022-08-09T11:08:01.210Z,2380.00
2022-08-09T11:10:05.128Z,2668.00
2022-08-09T11:11:08.922Z,2816.00
2022-08-09T11:13:09.036Z,3012.00
2022-08-09T11:14:08.993Z,3072.00
2022-08-09T11:16:12.950Z,3196.00
2022-08-09T11:17:12.883Z,3308.00
2022-08-09T11:19:16.798Z,3528.00
2022-08-09T11:20:22.923Z,3620.00
2022-08-09T11:22:21.689Z,3964.00
2022-08-09T11:23:23.902Z,4048.00
2022-08-09T11:25:26.023Z,4300.00
2022-08-09T11:26:24.562Z,4404.00
2022-08-09T11:28:30.588Z,4668.00
2022-08-09T11:30:04.455Z,4788.00
2022-08-09T11:31:33.815Z,5116.00
2022-08-09T11:32:32.596Z,5260.00
2022-08-09T11:34:36.282Z,5536.00
2022-08-09T11:35:49.698Z,5676.00
2022-08-09T11:37:40.684Z,5904.00
2022-08-09T11:38:33.240Z,6072.00
2022-08-09T11:40:33.990Z,6276.00
2022-08-09T11:41:38.475Z,6376.00
2022-08-09T11:43:37.449Z,6648.00
2022-08-09T11:44:36.903Z,6744.00
2022-08-09T11:46:33.107Z,6972.00
2022-08-09T11:47:29.755Z,7120.00
2022-08-09T11:49:42.792Z,7328.00
2022-08-09T11:50:53.688Z,7412.00
2022-08-09T11:53:02.718Z,7544.00
2022-08-09T11:53:59.094Z,7688.00
2022-08-09T11:55:52.103Z,7840.00
2022-08-09T11:56:48.127Z,8068.00
2022-08-09T11:58:50.304Z,8324.00
2022-08-09T11:59:45.322Z,8412.00
2022-08-09T12:02:17.674Z,8604.00
2022-08-09T12:02:51.262Z,8672.00
2022-08-09T12:04:58.134Z,8868.00
2022-08-09T12:05:53.132Z,8904.00
2022-08-09T12:07:57.065Z,9056.00
2022-08-09T12:08:57.029Z,9160.00
2022-08-09T12:11:00.952Z,9320.00
2022-08-09T12:12:03.106Z,9492.00
2022-08-09T12:14:09.950Z,9688.00
2022-08-09T12:15:08.890Z,9780.00
2022-08-09T12:16:58.369Z,9956.00
2022-08-09T12:17:57.661Z,10056.00
2022-08-09T12:20:01.610Z,10300.00
2022-08-09T12:21:02.758Z,10460.00
2022-08-09T12:23:05.490Z,10580.00
2022-08-09T12:24:08.911Z,10668.00
2022-08-09T12:26:09.393Z,10724.00
2022-08-09T12:28:58.770Z,10880.00
2022-08-09T12:29:33.400Z,11196.00
2022-08-09T12:30:35.307Z,11344.00
2022-08-09T12:32:17.209Z,11552.00
2022-08-09T12:33:17.168Z,11640.00
2022-08-09T12:35:22.019Z,11784.00
2022-08-09T12:36:31.283Z,11812.00
2022-08-09T12:38:37.578Z,11968.00
2022-08-09T12:39:25.055Z,12008.00
2022-08-09T12:41:28.911Z,12236.00
2022-08-09T12:42:28.891Z,12356.00
2022-08-09T12:44:37.503Z,12464.00
2022-08-09T12:45:38.618Z,12524.00
2022-08-09T12:47:25.643Z,12636.00
2022-08-09T12:48:33.375Z,12596.00
2022-08-09T12:50:29.562Z,12592.00
2022-08-09T12:51:52.456Z,12608.00
2022-08-09T12:53:37.576Z,12668.00
2022-08-09T12:54:33.500Z,12904.00
2022-08-09T12:56:48.603Z,13060.00
2022-08-09T12:57:38.685Z,13172.00
2022-08-09T13:00:03.393Z,13416.00
2022-08-09T13:00:41.312Z,13588.00
2022-08-09T13:02:45.682Z,13628.00
2022-08-09T13:03:53.565Z,13512.00
2022-08-09T13:06:13.306Z,13480.00
2022-08-09T13:06:49.071Z,13392.00
2022-08-09T13:08:53.165Z,12740.00
2022-08-09T13:10:01.080Z,13372.00
2022-08-09T13:12:01.700Z,13960.00
2022-08-09T13:13:10.949Z,14204.00
2022-08-09T13:15:00.830Z,14524.00
2022-08-09T13:16:00.806Z,14528.00
2022-08-09T13:18:09.618Z,14572.00
2022-08-09T13:19:04.708Z,14628.00
2022-08-09T13:22:36.589Z,14884.00
2022-08-09T13:22:36.658Z,14832.00
2022-08-09T13:24:42.562Z,14916.00
2022-08-09T13:25:14.283Z,15064.00
2022-08-09T13:27:06.046Z,15376.00
2022-08-09T13:28:05.352Z,15412.00
2022-08-09T13:30:51.379Z,15320.00
2022-08-09T13:32:13.273Z,15240.00
2022-08-09T13:33:17.259Z,15228.00
2022-08-09T13:34:13.183Z,15552.00
2022-08-09T13:36:24.640Z,15744.00
2022-08-09T13:37:50.501Z,15712.00
2022-08-09T13:41:51.429Z,15652.00
2022-08-09T13:41:56.385Z,15744.00
2022-08-09T13:42:25.036Z,15968.00
2022-08-09T13:43:35.601Z,16032.00
2022-08-09T13:45:32.302Z,16000.00
2022-08-09T13:47:13.693Z,16000.00
2022-08-09T13:48:32.752Z,15968.00
2022-08-09T13:49:37.807Z,16128.00
2022-08-09T13:51:36.696Z,16256.00
2022-08-09T13:52:37.011Z,16448.00
2022-08-09T13:54:43.143Z,16608.00
2022-08-09T13:55:40.574Z,16576.00
2022-08-09T13:57:36.305Z,16224.00
2022-08-09T13:58:33.405Z,16320.00
2022-08-09T14:00:43.791Z,16512.00
2022-08-09T14:02:00.630Z,16448.00
2022-08-09T14:04:01.313Z,16352.00
2022-08-09T14:04:49.405Z,16416.00
2022-08-09T14:06:35.971Z,16512.00
2022-08-09T14:07:41.120Z,16640.00
2022-08-09T14:09:38.026Z,16512.00
2022-08-09T14:10:50.359Z,16576.00
2022-08-09T14:12:41.915Z,16704.00
2022-08-09T14:14:23.034Z,16768.00
2022-08-09T14:16:06.556Z,16864.00
2022-08-09T14:16:45.805Z,16928.00
2022-08-09T14:18:50.644Z,17088.00
2022-08-09T14:19:49.730Z,16928.00
2022-08-09T14:21:53.653Z,17088.00